PWSweather.com
Personal Weather Stations
Station Observations
EDDERTON
Rossshire, EddertonGB IV191LA

RossshireEddertonGB IV191LA

Lat: 57.838, Lon: -4.176

Elevation: 60

Station Type: Davis Vantage PRO2 Wireless With Solar Sensor

http://www.ardmore-lodge.com

Latest ConditionsUpdated 1:45:00 PM GMT Sunday, Jun 25, 2017
Currently Today's Max Today's Min Today's Average
Temperature 54.7°F12.6°C 58.2°F14.6°C 50.4°F10.2°C 54.1°F12.3°C
Dew Point 48.6°F9.2°C 48.6°F9.2°C 44.5°F6.9°C 46.6°F8.1°C
Winds 8.1 mph W13.0 kmh W 19.6 mph W31.5 kmh W - 9.7 mph 15.6 kmh
Wind Gusts 10.4 mph16.7 kmh 32.2 mph51.8 kmh - -
Humidity 80% 85% 66% 76%
Pressure 29.69 in1005.4 mb 29.70 in1005.8 mb 29.52 in999.7 mb -
Precipitation - 0.05 in1.3 mm - -
Hour Temp Dew Point Humidity Winds Wind Gusts Pressure Precip Precip Rate Daily Precip Total
01:45 PM 54.7°F12.6°C 48.6°F9.2°C 80% 8.1 mph W13.0 kmh W 10.4 mph16.7 kmh 29.69 in1005.4 mb - 0.00 in0.0 mm 0.05 in1.3 mm
01:30 PM 53.7°F12.1°C 47.3°F8.5°C 79% 8.1 mph W13.0 kmh W 10.4 mph16.7 kmh 29.70 in1005.8 mb - 0.00 in0.0 mm 0.05 in1.3 mm
01:15 PM 54.4°F12.4°C 47.0°F8.3°C 76% 6.9 mph W11.1 kmh W 9.2 mph14.8 kmh 29.69 in1005.4 mb - 0.00 in0.0 mm 0.05 in1.3 mm
01:00 PM 56.5°F13.6°C 47.2°F8.4°C 71% 9.2 mph W14.8 kmh W 13.8 mph22.2 kmh 29.68 in1005.1 mb - 0.00 in0.0 mm 0.05 in1.3 mm
12:45 PM 57.0°F13.9°C 47.3°F8.5°C 70% 8.1 mph WNW13.0 kmh WNW 12.7 mph20.4 kmh 29.67 in1004.7 mb - 0.00 in0.0 mm 0.05 in1.3 mm
12:30 PM 57.2°F14.0°C 47.1°F8.4°C 69% 13.8 mph W22.2 kmh W 19.6 mph31.5 kmh 29.66 in1004.4 mb - 0.00 in0.0 mm 0.05 in1.3 mm
12:15 PM 57.8°F14.3°C 47.7°F8.7°C 69% 11.5 mph W18.5 kmh W 17.3 mph27.8 kmh 29.66 in1004.4 mb - 0.00 in0.0 mm 0.05 in1.3 mm
12:00 PM 56.5°F13.6°C 46.5°F8.1°C 69% 6.9 mph NW11.1 kmh NW 9.2 mph14.8 kmh 29.67 in1004.7 mb - 0.00 in0.0 mm 0.05 in1.3 mm
11:45 AM 55.6°F13.1°C 46.8°F8.2°C 72% 10.4 mph W16.7 kmh W 21.9 mph35.2 kmh 29.66 in1004.4 mb - 0.00 in0.0 mm 0.05 in1.3 mm
11:30 AM 55.3°F12.9°C 47.1°F8.4°C 74% 10.4 mph WNW16.7 kmh WNW 17.3 mph27.8 kmh 29.66 in1004.4 mb - 0.00 in0.0 mm 0.05 in1.3 mm
11:15 AM 55.6°F13.1°C 47.1°F8.4°C 73% 9.2 mph NW14.8 kmh NW 23.0 mph37.0 kmh 29.66 in1004.4 mb - 0.00 in0.0 mm 0.05 in1.3 mm
11:00 AM 56.4°F13.6°C 46.4°F8.0°C 69% 6.9 mph WNW11.1 kmh WNW 10.4 mph16.7 kmh 29.64 in1003.7 mb - 0.00 in0.0 mm 0.05 in1.3 mm
10:45 AM 57.0°F13.9°C 46.6°F8.1°C 68% 10.4 mph WNW16.7 kmh WNW 13.8 mph22.2 kmh 29.63 in1003.4 mb - 0.00 in0.0 mm 0.05 in1.3 mm
10:30 AM 58.2°F14.6°C 47.3°F8.5°C 67% 5.8 mph WNW9.3 kmh WNW 11.5 mph18.5 kmh 29.63 in1003.4 mb - 0.00 in0.0 mm 0.05 in1.3 mm
10:15 AM 57.5°F14.2°C 46.6°F8.1°C 67% 8.1 mph W13.0 kmh W 12.7 mph20.4 kmh 29.63 in1003.4 mb - 0.00 in0.0 mm 0.05 in1.3 mm
10:00 AM 57.2°F14.0°C 48.3°F9.1°C 72% 5.8 mph NW9.3 kmh NW 11.5 mph18.5 kmh 29.63 in1003.4 mb - 0.00 in0.0 mm 0.05 in1.3 mm
09:45 AM 55.7°F13.2°C 46.8°F8.2°C 72% 4.6 mph W7.4 kmh W 11.5 mph18.5 kmh 29.63 in1003.4 mb - 0.00 in0.0 mm 0.05 in1.3 mm
09:30 AM 55.9°F13.3°C 46.3°F7.9°C 70% 3.5 mph NW5.6 kmh NW 6.9 mph11.1 kmh 29.62 in1003.0 mb - 0.00 in0.0 mm 0.05 in1.3 mm
09:15 AM 55.9°F13.3°C 45.1°F7.3°C 67% 10.4 mph W16.7 kmh W 18.4 mph29.6 kmh 29.62 in1003.0 mb - 0.00 in0.0 mm 0.05 in1.3 mm
09:00 AM 55.7°F13.2°C 44.5°F6.9°C 66% 10.4 mph W16.7 kmh W 19.6 mph31.5 kmh 29.61 in1002.7 mb - 0.00 in0.0 mm 0.05 in1.3 mm
08:45 AM 56.1°F13.4°C 45.3°F7.4°C 67% 10.4 mph WNW16.7 kmh WNW 17.3 mph27.8 kmh 29.61 in1002.7 mb - 0.02 in0.5 mm 0.05 in1.3 mm
08:30 AM 56.8°F13.8°C 46.0°F7.8°C 67% 12.7 mph W20.4 kmh W 20.7 mph33.3 kmh 29.61 in1002.7 mb - 0.00 in0.0 mm 0.03 in0.8 mm
08:15 AM 56.6°F13.7°C 46.2°F7.9°C 68% 15.0 mph W24.1 kmh W 23.0 mph37.0 kmh 29.60 in1002.4 mb - 0.00 in0.0 mm 0.03 in0.8 mm
08:00 AM 56.0°F13.3°C 46.4°F8.0°C 70% 10.4 mph W16.7 kmh W 16.1 mph25.9 kmh 29.59 in1002.0 mb - 0.00 in0.0 mm 0.03 in0.8 mm
07:45 AM 56.6°F13.7°C 47.7°F8.7°C 72% 11.5 mph W18.5 kmh W 20.7 mph33.3 kmh 29.59 in1002.0 mb - 0.00 in0.0 mm 0.03 in0.8 mm
07:30 AM 56.0°F13.3°C 47.1°F8.4°C 72% 8.1 mph WNW13.0 kmh WNW 13.8 mph22.2 kmh 29.60 in1002.4 mb - 0.00 in0.0 mm 0.03 in0.8 mm
07:15 AM 55.1°F12.8°C 46.3°F7.9°C 72% 9.2 mph W14.8 kmh W 15.0 mph24.1 kmh 29.60 in1002.4 mb - 0.00 in0.0 mm 0.03 in0.8 mm
07:00 AM 54.9°F12.7°C 46.0°F7.8°C 72% 9.2 mph W14.8 kmh W 11.5 mph18.5 kmh 29.60 in1002.4 mb - 0.00 in0.0 mm 0.03 in0.8 mm
06:45 AM 54.8°F12.7°C 46.3°F7.9°C 73% 6.9 mph W11.1 kmh W 16.1 mph25.9 kmh 29.60 in1002.4 mb - 0.00 in0.0 mm 0.03 in0.8 mm
06:30 AM 54.9°F12.7°C 46.8°F8.2°C 74% 6.9 mph WSW11.1 kmh WSW 11.5 mph18.5 kmh 29.59 in1002.0 mb - 0.00 in0.0 mm 0.03 in0.8 mm
06:15 AM 53.3°F11.8°C 46.3°F7.9°C 77% 4.6 mph WNW7.4 kmh WNW 10.4 mph16.7 kmh 29.59 in1002.0 mb - 0.00 in0.0 mm 0.03 in0.8 mm
06:00 AM 52.9°F11.6°C 45.9°F7.7°C 77% 3.5 mph W5.6 kmh W 10.4 mph16.7 kmh 29.59 in1002.0 mb - 0.00 in0.0 mm 0.03 in0.8 mm
05:45 AM 52.7°F11.5°C 46.0°F7.8°C 78% 6.9 mph W11.1 kmh W 13.8 mph22.2 kmh 29.58 in1001.7 mb - 0.00 in0.0 mm 0.03 in0.8 mm
05:30 AM 52.5°F11.4°C 46.9°F8.3°C 81% 8.1 mph WNW13.0 kmh WNW 12.7 mph20.4 kmh 29.57 in1001.4 mb - 0.00 in0.0 mm 0.03 in0.8 mm
05:15 AM 52.8°F11.6°C 47.1°F8.4°C 81% 9.2 mph W14.8 kmh W 13.8 mph22.2 kmh 29.57 in1001.4 mb - 0.00 in0.0 mm 0.03 in0.8 mm
05:00 AM 52.2°F11.2°C 47.2°F8.4°C 83% 11.5 mph W18.5 kmh W 19.6 mph31.5 kmh 29.57 in1001.4 mb - 0.00 in0.0 mm 0.03 in0.8 mm
04:45 AM 52.2°F11.2°C 47.2°F8.4°C 83% 8.1 mph W13.0 kmh W 10.4 mph16.7 kmh 29.57 in1001.4 mb - 0.00 in0.0 mm 0.03 in0.8 mm
04:30 AM 52.2°F11.2°C 47.2°F8.4°C 83% 8.1 mph WSW13.0 kmh WSW 11.5 mph18.5 kmh 29.57 in1001.4 mb - 0.00 in0.0 mm 0.03 in0.8 mm
04:15 AM 51.9°F11.1°C 46.6°F8.1°C 82% 5.8 mph W9.3 kmh W 11.5 mph18.5 kmh 29.56 in1001.0 mb - 0.00 in0.0 mm 0.03 in0.8 mm
04:00 AM 51.8°F11.0°C 46.5°F8.1°C 82% 3.5 mph W5.6 kmh W 10.4 mph16.7 kmh 29.55 in1000.7 mb - 0.00 in0.0 mm 0.03 in0.8 mm
03:45 AM 51.8°F11.0°C 46.2°F7.9°C 81% 5.8 mph W9.3 kmh W 11.5 mph18.5 kmh 29.55 in1000.7 mb - 0.00 in0.0 mm 0.03 in0.8 mm
03:30 AM 51.4°F10.8°C 45.8°F7.7°C 81% 8.1 mph W13.0 kmh W 11.5 mph18.5 kmh 29.55 in1000.7 mb - 0.00 in0.0 mm 0.03 in0.8 mm
03:15 AM 51.2°F10.7°C 45.6°F7.6°C 81% 6.9 mph W11.1 kmh W 13.8 mph22.2 kmh 29.54 in1000.3 mb - 0.00 in0.0 mm 0.03 in0.8 mm
03:00 AM 51.5°F10.8°C 46.2°F7.9°C 82% 9.2 mph W14.8 kmh W 11.5 mph18.5 kmh 29.54 in1000.3 mb - 0.00 in0.0 mm 0.03 in0.8 mm
02:45 AM 51.7°F10.9°C 46.4°F8.0°C 82% 13.8 mph W22.2 kmh W 21.9 mph35.2 kmh 29.54 in1000.3 mb - 0.00 in0.0 mm 0.03 in0.8 mm
02:30 AM 51.9°F11.1°C 46.6°F8.1°C 82% 17.3 mph W27.8 kmh W 23.0 mph37.0 kmh 29.54 in1000.3 mb - 0.00 in0.0 mm 0.03 in0.8 mm
02:15 AM 51.4°F10.8°C 45.8°F7.7°C 81% 15.0 mph W24.1 kmh W 21.9 mph35.2 kmh 29.54 in1000.3 mb - 0.00 in0.0 mm 0.03 in0.8 mm
02:00 AM 51.6°F10.9°C 46.3°F7.9°C 82% 16.1 mph WSW25.9 kmh WSW 20.7 mph33.3 kmh 29.54 in1000.3 mb - 0.00 in0.0 mm 0.03 in0.8 mm
01:45 AM 51.6°F10.9°C 46.6°F8.1°C 83% 18.4 mph W29.6 kmh W 27.6 mph44.4 kmh 29.54 in1000.3 mb - 0.00 in0.0 mm 0.03 in0.8 mm
01:30 AM 51.6°F10.9°C 46.0°F7.8°C 81% 17.3 mph W27.8 kmh W 19.6 mph31.5 kmh 29.53 in1000.0 mb - 0.01 in0.3 mm 0.03 in0.8 mm
01:15 AM 51.8°F11.0°C 46.2°F7.9°C 81% 12.7 mph W20.4 kmh W 21.9 mph35.2 kmh 29.52 in999.7 mb - 0.00 in0.0 mm 0.02 in0.5 mm
01:00 AM 51.8°F11.0°C 46.5°F8.1°C 82% 11.5 mph W18.5 kmh W 19.6 mph31.5 kmh 29.53 in1000.0 mb - 0.00 in0.0 mm 0.02 in0.5 mm
12:45 AM 51.1°F10.6°C 46.4°F8.0°C 84% 19.6 mph W31.5 kmh W 32.2 mph51.8 kmh 29.52 in999.7 mb - 0.00 in0.0 mm 0.02 in0.5 mm
12:30 AM 50.4°F10.2°C 45.8°F7.7°C 84% 12.7 mph WSW20.4 kmh WSW 20.7 mph33.3 kmh 29.53 in1000.0 mb - 0.00 in0.0 mm 0.02 in0.5 mm
12:15 AM 51.0°F10.6°C 46.7°F8.2°C 85% 10.4 mph W16.7 kmh W 21.9 mph35.2 kmh 29.53 in1000.0 mb - 0.01 in0.3 mm 0.02 in0.5 mm
12:00 AM 51.9°F11.1°C 46.2°F7.9°C 81% 10.4 mph WNW16.7 kmh WNW 19.6 mph31.5 kmh 29.52 in999.7 mb - 0.01 in0.3 mm 0.01 in0.3 mm